Terminal Aerodrome Forecast
Issued by NWS Wilmington, NC

Home | Current Version | Previous Version | Text Only | Print | Product List | Glossary On
Versions: 1 2 3 4 5 6 7 8 9 10 11 12 13
730
FTUS42 KILM 261124
TAFLBT
TAF
KLBT 261124Z 2612/2712 VRB05KT P6SM SCT030 SCT060
     FM261900 13006KT P6SM SCT050
     FM270100 VRB02KT P6SM FEW060
      TEMPO 2708/2711 3SM BR=

USA.gov is the U.S. government's official web portal to all federal, state and local government web resources and services.